sensor_id;sensor_type;location;lat;lon;timestamp;pressure;altitude;pressure_sealevel;temperature;humidity
19624;BME280;9959;49.798;9.928;2023-05-08T00:00:30;99989.63;;;13.86;77.85
19624;BME280;9959;49.798;9.928;2023-05-08T00:02:57;99987.44;;;13.76;78.02
19624;BME280;9959;49.798;9.928;2023-05-08T00:05:24;99982.47;;;13.73;78.03
19624;BME280;9959;49.798;9.928;2023-05-08T00:07:51;99987.44;;;13.76;77.96
19624;BME280;9959;49.798;9.928;2023-05-08T00:10:19;99988.88;;;13.79;78.27
19624;BME280;9959;49.798;9.928;2023-05-08T00:12:45;99985.19;;;13.73;78.14
19624;BME280;9959;49.798;9.928;2023-05-08T00:15:12;99984.22;;;13.86;78.00
19624;BME280;9959;49.798;9.928;2023-05-08T00:17:39;99984.06;;;13.81;78.06
19624;BME280;9959;49.798;9.928;2023-05-08T00:20:06;99980.38;;;13.75;78.22
19624;BME280;9959;49.798;9.928;2023-05-08T00:22:34;99982.41;;;13.62;78.57
19624;BME280;9959;49.798;9.928;2023-05-08T00:25:01;99989.03;;;13.66;78.50
19624;BME280;9959;49.798;9.928;2023-05-08T00:27:30;99983.91;;;13.76;78.29
19624;BME280;9959;49.798;9.928;2023-05-08T00:29:57;99989.09;;;13.77;78.28
19624;BME280;9959;49.798;9.928;2023-05-08T00:32:24;99985.97;;;13.55;78.52
19624;BME280;9959;49.798;9.928;2023-05-08T00:34:51;99989.59;;;13.68;78.45
19624;BME280;9959;49.798;9.928;2023-05-08T00:37:18;99986.66;;;13.69;78.38
19624;BME280;9959;49.798;9.928;2023-05-08T00:39:44;99992.47;;;13.73;77.94
19624;BME280;9959;49.798;9.928;2023-05-08T00:42:11;99999.09;;;13.77;78.26
19624;BME280;9959;49.798;9.928;2023-05-08T00:44:38;99995.00;;;13.68;78.41
19624;BME280;9959;49.798;9.928;2023-05-08T00:47:07;99997.06;;;13.72;78.38
19624;BME280;9959;49.798;9.928;2023-05-08T00:49:34;99988.94;;;13.72;78.33
19624;BME280;9959;49.798;9.928;2023-05-08T00:52:02;99991.72;;;13.66;78.11
19624;BME280;9959;49.798;9.928;2023-05-08T00:54:30;99996.38;;;13.59;78.67
19624;BME280;9959;49.798;9.928;2023-05-08T00:56:57;99993.50;;;13.53;78.67
19624;BME280;9959;49.798;9.928;2023-05-08T00:59:25;100000.19;;;13.51;78.79
19624;BME280;9959;49.798;9.928;2023-05-08T01:01:52;99998.31;;;13.51;78.89
19624;BME280;9959;49.798;9.928;2023-05-08T01:04:20;100001.84;;;13.52;79.04
19624;BME280;9959;49.798;9.928;2023-05-08T01:06:50;99992.34;;;13.43;79.01
19624;BME280;9959;49.798;9.928;2023-05-08T01:09:16;100005.22;;;13.47;78.96
19624;BME280;9959;49.798;9.928;2023-05-08T01:11:51;99998.53;;;13.50;79.06
19624;BME280;9959;49.798;9.928;2023-05-08T01:14:39;100001.22;;;13.50;78.91
19624;BME280;9959;49.798;9.928;2023-05-08T01:17:23;99998.66;;;13.37;79.08
19624;BME280;9959;49.798;9.928;2023-05-08T01:20:23;100006.56;;;13.38;79.32
19624;BME280;9959;49.798;9.928;2023-05-08T01:23:07;100009.34;;;13.50;78.35
19624;BME280;9959;49.798;9.928;2023-05-08T01:25:56;100009.09;;;13.33;78.80
19624;BME280;9959;49.798;9.928;2023-05-08T01:34:23;100009.91;;;13.34;78.63
19624;BME280;9959;49.798;9.928;2023-05-08T01:37:13;100017.38;;;13.38;78.78
19624;BME280;9959;49.798;9.928;2023-05-08T01:40:08;100015.59;;;13.26;78.92
19624;BME280;9959;49.798;9.928;2023-05-08T01:42:57;100014.91;;;13.37;78.69
19624;BME280;9959;49.798;9.928;2023-05-08T01:45:31;100016.38;;;13.33;78.86
19624;BME280;9959;49.798;9.928;2023-05-08T01:48:05;100013.06;;;13.31;78.94
19624;BME280;9959;49.798;9.928;2023-05-08T01:50:55;100014.34;;;13.28;79.28
19624;BME280;9959;49.798;9.928;2023-05-08T01:53:57;100017.88;;;13.29;79.15
19624;BME280;9959;49.798;9.928;2023-05-08T01:56:28;100023.06;;;13.30;78.90
19624;BME280;9959;49.798;9.928;2023-05-08T01:58:57;100019.78;;;13.21;79.38
19624;BME280;9959;49.798;9.928;2023-05-08T02:01:25;100029.13;;;13.26;79.14
19624;BME280;9959;49.798;9.928;2023-05-08T02:03:56;100027.91;;;13.15;79.69
19624;BME280;9959;49.798;9.928;2023-05-08T02:06:25;100034.63;;;13.12;79.98
19624;BME280;9959;49.798;9.928;2023-05-08T02:08:55;100028.34;;;13.18;79.91
19624;BME280;9959;49.798;9.928;2023-05-08T02:11:24;100032.13;;;13.11;79.75
19624;BME280;9959;49.798;9.928;2023-05-08T02:13:51;100039.38;;;13.17;79.67
19624;BME280;9959;49.798;9.928;2023-05-08T02:16:19;100043.78;;;13.11;79.82
19624;BME280;9959;49.798;9.928;2023-05-08T02:18:50;100042.56;;;13.07;80.25
19624;BME280;9959;49.798;9.928;2023-05-08T02:21:19;100038.72;;;13.21;79.57
19624;BME280;9959;49.798;9.928;2023-05-08T02:23:47;100047.13;;;13.07;80.02
19624;BME280;9959;49.798;9.928;2023-05-08T02:26:16;100050.50;;;13.02;80.75
19624;BME280;9959;49.798;9.928;2023-05-08T02:28:43;100048.00;;;13.01;80.56
19624;BME280;9959;49.798;9.928;2023-05-08T02:31:11;100046.03;;;12.83;81.01
19624;BME280;9959;49.798;9.928;2023-05-08T02:33:42;100048.66;;;12.96;80.80
19624;BME280;9959;49.798;9.928;2023-05-08T02:36:14;100049.06;;;12.93;81.39
19624;BME280;9959;49.798;9.928;2023-05-08T02:38:47;100054.25;;;13.01;80.46
19624;BME280;9959;49.798;9.928;2023-05-08T02:41:20;100053.00;;;12.97;80.93
19624;BME280;9959;49.798;9.928;2023-05-08T02:43:49;100052.22;;;12.90;81.11
19624;BME280;9959;49.798;9.928;2023-05-08T02:46:22;100058.84;;;12.94;80.85
19624;BME280;9959;49.798;9.928;2023-05-08T02:48:58;100058.66;;;12.89;80.89
19624;BME280;9959;49.798;9.928;2023-05-08T02:51:38;100050.69;;;13.01;80.43
19624;BME280;9959;49.798;9.928;2023-05-08T02:54:23;100058.41;;;12.97;80.57
19624;BME280;9959;49.798;9.928;2023-05-08T02:57:13;100062.16;;;12.96;80.65
19624;BME280;9959;49.798;9.928;2023-05-08T02:59:56;100068.38;;;13.03;80.52
19624;BME280;9959;49.798;9.928;2023-05-08T03:02:34;100061.81;;;12.86;81.07
19624;BME280;9959;49.798;9.928;2023-05-08T03:05:30;100063.84;;;12.91;80.90
19624;BME280;9959;49.798;9.928;2023-05-08T03:08:02;100054.91;;;12.90;80.36
19624;BME280;9959;49.798;9.928;2023-05-08T03:10:33;100058.66;;;12.89;80.60
19624;BME280;9959;49.798;9.928;2023-05-08T03:13:04;100061.16;;;12.91;80.50
19624;BME280;9959;49.798;9.928;2023-05-08T03:15:36;100063.84;;;12.91;80.62
19624;BME280;9959;49.798;9.928;2023-05-08T03:18:10;100063.41;;;13.00;80.15
19624;BME280;9959;49.798;9.928;2023-05-08T03:20:42;100058.59;;;13.02;80.17
19624;BME280;9959;49.798;9.928;2023-05-08T03:23:11;100058.81;;;13.01;79.90
19624;BME280;9959;49.798;9.928;2023-05-08T03:25:41;100052.16;;;13.03;79.66
19624;BME280;9959;49.798;9.928;2023-05-08T03:28:09;100058.38;;;13.04;79.56
19624;BME280;9959;49.798;9.928;2023-05-08T03:30:39;100051.72;;;13.06;79.48
19624;BME280;9959;49.798;9.928;2023-05-08T03:33:07;100064.66;;;12.98;80.04
19624;BME280;9959;49.798;9.928;2023-05-08T03:35:38;100065.09;;;12.95;79.96
19624;BME280;9959;49.798;9.928;2023-05-08T03:38:05;100061.22;;;12.84;80.35
19624;BME280;9959;49.798;9.928;2023-05-08T03:40:35;100066.34;;;12.92;80.86
19624;BME280;9959;49.798;9.928;2023-05-08T03:43:08;100062.59;;;12.93;81.45
19624;BME280;9959;49.798;9.928;2023-05-08T03:45:37;100058.06;;;12.87;80.95
19624;BME280;9959;49.798;9.928;2023-05-08T03:48:06;100058.53;;;12.77;81.99
19624;BME280;9959;49.798;9.928;2023-05-08T03:50:35;100065.78;;;12.83;82.33
19624;BME280;9959;49.798;9.928;2023-05-08T03:53:02;100062.34;;;12.63;83.01
19624;BME280;9959;49.798;9.928;2023-05-08T03:55:30;100060.66;;;12.69;84.14
19624;BME280;9959;49.798;9.928;2023-05-08T04:00:34;100067.34;;;12.60;85.81
19624;BME280;9959;49.798;9.928;2023-05-08T04:03:15;100057.34;;;12.60;85.67
19624;BME280;9959;49.798;9.928;2023-05-08T04:06:10;100063.66;;;12.47;86.13
19624;BME280;9959;49.798;9.928;2023-05-08T04:08:41;100068.63;;;12.57;86.75
19624;BME280;9959;49.798;9.928;2023-05-08T04:13:42;100075.31;;;12.41;86.46
19624;BME280;9959;49.798;9.928;2023-05-08T04:16:18;100076.56;;;12.45;87.80
19624;BME280;9959;49.798;9.928;2023-05-08T04:18:46;100078.22;;;12.46;88.18
19624;BME280;9959;49.798;9.928;2023-05-08T04:21:18;100081.97;;;12.45;88.12
19624;BME280;9959;49.798;9.928;2023-05-08T04:23:47;100085.47;;;12.52;87.21
19624;BME280;9959;49.798;9.928;2023-05-08T04:26:16;100079.88;;;12.47;87.45
19624;BME280;9959;49.798;9.928;2023-05-08T04:28:44;100083.03;;;12.31;88.37
19624;BME280;9959;49.798;9.928;2023-05-08T04:31:15;100085.34;;;12.28;87.74
19624;BME280;9959;49.798;9.928;2023-05-08T04:33:43;100089.06;;;12.33;87.44
19624;BME280;9959;49.798;9.928;2023-05-08T04:36:12;100093.41;;;12.34;88.90
19624;BME280;9959;49.798;9.928;2023-05-08T04:38:39;100089.03;;;12.40;87.58
19624;BME280;9959;49.798;9.928;2023-05-08T04:41:07;100094.06;;;12.30;87.95
19624;BME280;9959;49.798;9.928;2023-05-08T04:43:35;100092.78;;;12.32;88.15
19624;BME280;9959;49.798;9.928;2023-05-08T04:46:03;100095.69;;;12.37;88.11
19624;BME280;9959;49.798;9.928;2023-05-08T04:48:31;100095.88;;;12.49;89.33
19624;BME280;9959;49.798;9.928;2023-05-08T04:50:59;100105.66;;;12.43;87.72
19624;BME280;9959;49.798;9.928;2023-05-08T04:53:26;100107.53;;;12.49;89.20
19624;BME280;9959;49.798;9.928;2023-05-08T04:55:53;100105.44;;;12.51;87.90
19624;BME280;9959;49.798;9.928;2023-05-08T04:58:20;100110.22;;;12.49;88.10
19624;BME280;9959;49.798;9.928;2023-05-08T05:00:47;100112.72;;;12.44;87.17
19624;BME280;9959;49.798;9.928;2023-05-08T05:03:14;100118.09;;;12.58;87.82
19624;BME280;9959;49.798;9.928;2023-05-08T05:05:41;100114.31;;;12.59;86.89
19624;BME280;9959;49.798;9.928;2023-05-08T05:08:11;100117.84;;;12.66;86.37
19624;BME280;9959;49.798;9.928;2023-05-08T05:10:38;100116.59;;;12.62;86.41
19624;BME280;9959;49.798;9.928;2023-05-08T05:13:05;100120.19;;;12.56;86.34
19624;BME280;9959;49.798;9.928;2023-05-08T05:15:32;100120.19;;;12.56;87.52
19624;BME280;9959;49.798;9.928;2023-05-08T05:17:59;100120.94;;;12.69;88.10
19624;BME280;9959;49.798;9.928;2023-05-08T05:20:26;100122.28;;;12.47;87.37
19624;BME280;9959;49.798;9.928;2023-05-08T05:22:53;100126.44;;;12.56;87.27
19624;BME280;9959;49.798;9.928;2023-05-08T05:25:19;100129.09;;;12.63;85.49
19624;BME280;9959;49.798;9.928;2023-05-08T05:27:46;100128.88;;;12.64;84.86
19624;BME280;9959;49.798;9.928;2023-05-08T05:30:13;100138.44;;;12.67;85.54
19624;BME280;9959;49.798;9.928;2023-05-08T05:32:40;100128.84;;;12.71;84.15
19624;BME280;9959;49.798;9.928;2023-05-08T05:35:08;100136.78;;;12.59;83.83
19624;BME280;9959;49.798;9.928;2023-05-08T05:37:35;100138.06;;;12.57;82.93
19624;BME280;9959;49.798;9.928;2023-05-08T05:40:03;100141.75;;;12.69;83.03
19624;BME280;9959;49.798;9.928;2023-05-08T05:42:30;100144.44;;;12.69;82.06
19624;BME280;9959;49.798;9.928;2023-05-08T05:44:57;100135.72;;;12.67;81.69
19624;BME280;9959;49.798;9.928;2023-05-08T05:47:24;100138.84;;;12.70;80.15
19624;BME280;9959;49.798;9.928;2023-05-08T05:49:51;100139.44;;;12.79;80.74
19624;BME280;9959;49.798;9.928;2023-05-08T05:52:18;100146.53;;;12.73;79.44
19624;BME280;9959;49.798;9.928;2023-05-08T05:54:45;100146.69;;;12.85;79.54
19624;BME280;9959;49.798;9.928;2023-05-08T05:57:12;100149.41;;;12.85;80.49
19624;BME280;9959;49.798;9.928;2023-05-08T05:59:39;100152.09;;;12.85;79.91
19624;BME280;9959;49.798;9.928;2023-05-08T06:02:06;100156.22;;;12.94;79.23
19624;BME280;9959;49.798;9.928;2023-05-08T06:04:39;100152.25;;;12.97;79.23
19624;BME280;9959;49.798;9.928;2023-05-08T06:07:06;100153.22;;;13.15;80.38
19624;BME280;9959;49.798;9.928;2023-05-08T06:09:33;100157.41;;;13.11;77.48
19624;BME280;9959;49.798;9.928;2023-05-08T06:12:00;100161.09;;;13.24;77.67
19624;BME280;9959;49.798;9.928;2023-05-08T06:14:27;100158.81;;;13.20;77.67
19624;BME280;9959;49.798;9.928;2023-05-08T06:16:54;100153.41;;;13.20;76.62
19624;BME280;9959;49.798;9.928;2023-05-08T06:19:20;100159.81;;;13.33;74.70
19624;BME280;9959;49.798;9.928;2023-05-08T06:21:50;100152.41;;;13.08;75.56
19624;BME280;9959;49.798;9.928;2023-05-08T06:24:17;100162.81;;;13.11;74.88
19624;BME280;9959;49.798;9.928;2023-05-08T06:26:44;100156.03;;;13.34;74.77
19624;BME280;9959;49.798;9.928;2023-05-08T06:29:12;100157.31;;;13.31;74.55
19624;BME280;9959;49.798;9.928;2023-05-08T06:31:39;100163.56;;;13.32;75.80
19624;BME280;9959;49.798;9.928;2023-05-08T06:34:06;100158.88;;;13.45;74.62
19624;BME280;9959;49.798;9.928;2023-05-08T06:36:33;100161.53;;;13.52;74.54
19624;BME280;9959;49.798;9.928;2023-05-08T06:39:00;100166.09;;;13.58;73.54
19624;BME280;9959;49.798;9.928;2023-05-08T06:41:27;100166.16;;;13.45;73.93
19624;BME280;9959;49.798;9.928;2023-05-08T06:43:54;100169.88;;;13.50;73.43
19624;BME280;9959;49.798;9.928;2023-05-08T06:46:20;100163.81;;;13.55;73.40
19624;BME280;9959;49.798;9.928;2023-05-08T06:48:47;100165.84;;;13.66;72.47
19624;BME280;9959;49.798;9.928;2023-05-08T06:51:14;100153.56;;;13.88;71.56
19624;BME280;9959;49.798;9.928;2023-05-08T06:53:41;100153.44;;;14.02;72.28
19624;BME280;9959;49.798;9.928;2023-05-08T06:56:08;100154.28;;;13.77;71.65
19624;BME280;9959;49.798;9.928;2023-05-08T06:58:35;100158.00;;;14.08;71.51
19624;BME280;9959;49.798;9.928;2023-05-08T07:01:02;100155.47;;;14.31;69.71
19624;BME280;9959;49.798;9.928;2023-05-08T07:03:28;100164.78;;;14.42;68.95
19624;BME280;9959;49.798;9.928;2023-05-08T07:05:55;100157.06;;;14.20;68.40
19624;BME280;9959;49.798;9.928;2023-05-08T07:08:22;100163.78;;;14.11;69.49
19624;BME280;9959;49.798;9.928;2023-05-08T07:10:49;100171.19;;;13.73;70.71
19624;BME280;9959;49.798;9.928;2023-05-08T07:13:16;100159.53;;;13.97;70.52
19624;BME280;9959;49.798;9.928;2023-05-08T07:15:47;100160.22;;;13.93;72.22
19624;BME280;9959;49.798;9.928;2023-05-08T07:18:14;100160.44;;;14.16;70.67
19624;BME280;9959;49.798;9.928;2023-05-08T07:20:41;100163.31;;;14.21;69.59
19624;BME280;9959;49.798;9.928;2023-05-08T07:23:08;100162.28;;;14.40;69.60
19624;BME280;9959;49.798;9.928;2023-05-08T07:25:35;100163.97;;;14.41;68.15
19624;BME280;9959;49.798;9.928;2023-05-08T07:28:02;100173.03;;;14.04;69.99
19624;BME280;9959;49.798;9.928;2023-05-08T07:30:29;100161.41;;;14.21;69.45
19624;BME280;9959;49.798;9.928;2023-05-08T07:32:56;100174.81;;;14.41;68.72
19624;BME280;9959;49.798;9.928;2023-05-08T07:35:23;100174.00;;;14.34;67.80
19624;BME280;9959;49.798;9.928;2023-05-08T07:37:50;100170.19;;;15.15;65.70
19624;BME280;9959;49.798;9.928;2023-05-08T07:40:17;100166.22;;;14.99;67.33
19624;BME280;9959;49.798;9.928;2023-05-08T07:42:44;100172.75;;;15.10;64.97
19624;BME280;9959;49.798;9.928;2023-05-08T07:45:11;100168.78;;;14.94;65.21
19624;BME280;9959;49.798;9.928;2023-05-08T07:47:55;100167.69;;;14.40;67.26
19624;BME280;9959;49.798;9.928;2023-05-08T07:50:24;100175.88;;;14.77;66.40
19624;BME280;9959;49.798;9.928;2023-05-08T07:52:51;100170.81;;;14.99;67.45
19624;BME280;9959;49.798;9.928;2023-05-08T07:55:18;100174.59;;;14.79;67.03
19624;BME280;9959;49.798;9.928;2023-05-08T07:57:45;100179.16;;;15.45;64.22
19624;BME280;9959;49.798;9.928;2023-05-08T08:00:14;100175.00;;;15.61;63.87
19624;BME280;9959;49.798;9.928;2023-05-08T08:02:41;100175.16;;;15.48;64.20
19624;BME280;9959;49.798;9.928;2023-05-08T08:05:09;100173.34;;;15.12;66.16
19624;BME280;9959;49.798;9.928;2023-05-08T08:07:36;100175.69;;;15.08;65.05
19624;BME280;9959;49.798;9.928;2023-05-08T08:10:03;100179.75;;;15.17;64.92
19624;BME280;9959;49.798;9.928;2023-05-08T08:12:30;100168.00;;;15.23;64.47
19624;BME280;9959;49.798;9.928;2023-05-08T08:14:57;100167.53;;;15.27;64.84
19624;BME280;9959;49.798;9.928;2023-05-08T08:17:24;100171.22;;;15.62;64.03
19624;BME280;9959;49.798;9.928;2023-05-08T08:19:54;100174.38;;;16.01;62.44
19624;BME280;9959;49.798;9.928;2023-05-08T08:22:21;100175.91;;;15.85;63.52
19624;BME280;9959;49.798;9.928;2023-05-08T08:24:48;100171.81;;;16.29;61.73
19624;BME280;9959;49.798;9.928;2023-05-08T08:27:19;100165.03;;;16.78;64.30
19624;BME280;9959;49.798;9.928;2023-05-08T08:29:46;100175.09;;;16.08;62.55
19624;BME280;9959;49.798;9.928;2023-05-08T08:32:13;100175.91;;;15.85;63.04
19624;BME280;9959;49.798;9.928;2023-05-08T08:34:40;100165.75;;;16.15;63.54
19624;BME280;9959;49.798;9.928;2023-05-08T08:37:06;100170.00;;;16.70;60.65
19624;BME280;9959;49.798;9.928;2023-05-08T08:39:34;100168.22;;;16.17;62.02
19624;BME280;9959;49.798;9.928;2023-05-08T08:42:01;100167.66;;;16.27;62.16
19624;BME280;9959;49.798;9.928;2023-05-08T08:44:28;100173.09;;;16.38;61.40
19624;BME280;9959;49.798;9.928;2023-05-08T08:46:57;100169.19;;;15.99;62.35
19624;BME280;9959;49.798;9.928;2023-05-08T08:49:30;100179.53;;;17.07;59.93
19624;BME280;9959;49.798;9.928;2023-05-08T08:52:01;100173.31;;;16.72;60.14
19624;BME280;9959;49.798;9.928;2023-05-08T08:54:32;100172.84;;;16.16;60.99
19624;BME280;9959;49.798;9.928;2023-05-08T08:57:04;100173.84;;;16.97;59.32
19624;BME280;9959;49.798;9.928;2023-05-08T08:59:33;100174.63;;;17.21;58.33
19624;BME280;9959;49.798;9.928;2023-05-08T09:02:11;100176.50;;;16.45;60.33
19624;BME280;9959;49.798;9.928;2023-05-08T09:04:40;100184.75;;;16.97;59.44
19624;BME280;9959;49.798;9.928;2023-05-08T09:07:08;100180.31;;;16.33;60.89
19624;BME280;9959;49.798;9.928;2023-05-08T09:09:38;100188.97;;;17.16;58.80
19624;BME280;9959;49.798;9.928;2023-05-08T09:12:06;100180.47;;;17.13;58.73
19624;BME280;9959;49.798;9.928;2023-05-08T09:14:33;100182.47;;;16.66;60.94
19624;BME280;9959;49.798;9.928;2023-05-08T09:17:00;100176.63;;;16.85;59.53
19624;BME280;9959;49.798;9.928;2023-05-08T09:19:27;100182.38;;;17.41;57.89
19624;BME280;9959;49.798;9.928;2023-05-08T09:21:58;100181.25;;;16.85;59.42
19624;BME280;9959;49.798;9.928;2023-05-08T09:24:25;100178.69;;;17.07;58.59
19624;BME280;9959;49.798;9.928;2023-05-08T09:26:56;100178.88;;;16.53;60.62
19624;BME280;9959;49.798;9.928;2023-05-08T09:29:23;100185.91;;;17.41;58.07
19624;BME280;9959;49.798;9.928;2023-05-08T09:31:51;100173.13;;;17.70;57.00
19624;BME280;9959;49.798;9.928;2023-05-08T09:34:29;100176.44;;;17.15;58.26
19624;BME280;9959;49.798;9.928;2023-05-08T09:39:35;100181.88;;;17.15;59.69
19624;BME280;9959;49.798;9.928;2023-05-08T09:42:03;100178.09;;;17.73;58.75
19624;BME280;9959;49.798;9.928;2023-05-08T09:44:43;100185.78;;;17.48;59.32
19624;BME280;9959;49.798;9.928;2023-05-08T09:47:12;100179.81;;;17.79;58.84
19624;BME280;9959;49.798;9.928;2023-05-08T09:49:55;100176.97;;;16.89;61.52
19624;BME280;9959;49.798;9.928;2023-05-08T09:52:23;100171.25;;;17.71;58.30
19624;BME280;9959;49.798;9.928;2023-05-08T09:55:07;100174.13;;;18.14;57.54
19624;BME280;9959;49.798;9.928;2023-05-08T09:57:36;100171.84;;;18.23;57.10
19624;BME280;9959;49.798;9.928;2023-05-08T10:00:10;100181.56;;;17.29;60.63
19624;BME280;9959;49.798;9.928;2023-05-08T10:02:40;100175.03;;;17.86;59.30
19624;BME280;9959;49.798;9.928;2023-05-08T10:05:40;100178.88;;;18.02;58.19
19624;BME280;9959;49.798;9.928;2023-05-08T10:08:19;100180.09;;;18.28;56.74
19624;BME280;9959;49.798;9.928;2023-05-08T10:10:46;100182.53;;;17.79;58.84
19624;BME280;9959;49.798;9.928;2023-05-08T10:13:13;100180.38;;;17.65;59.47
19624;BME280;9959;49.798;9.928;2023-05-08T10:15:44;100191.81;;;17.21;60.51
19624;BME280;9959;49.798;9.928;2023-05-08T10:18:12;100177.09;;;17.79;59.10
19624;BME280;9959;49.798;9.928;2023-05-08T10:20:45;100180.28;;;18.05;58.29
19624;BME280;9959;49.798;9.928;2023-05-08T10:23:14;100170.00;;;18.12;58.35
19624;BME280;9959;49.798;9.928;2023-05-08T10:25:47;100176.78;;;17.76;60.23
19624;BME280;9959;49.798;9.928;2023-05-08T10:28:35;100177.91;;;17.80;59.95
19624;BME280;9959;49.798;9.928;2023-05-08T10:31:06;100173.22;;;17.75;59.88
19624;BME280;9959;49.798;9.928;2023-05-08T10:33:34;100182.81;;;17.21;62.74
19624;BME280;9959;49.798;9.928;2023-05-08T10:36:06;100176.97;;;16.89;65.49
19624;BME280;9959;49.798;9.928;2023-05-08T10:38:36;100180.34;;;17.76;66.82
19624;BME280;9959;49.798;9.928;2023-05-08T10:41:03;100179.91;;;17.68;68.34
19624;BME280;9959;49.798;9.928;2023-05-08T10:43:31;100172.03;;;16.63;69.43
19624;BME280;9959;49.798;9.928;2023-05-08T10:46:08;100177.59;;;16.79;70.81
19624;BME280;9959;49.798;9.928;2023-05-08T10:48:59;100179.25;;;17.20;69.10
19624;BME280;9959;49.798;9.928;2023-05-08T10:51:52;100169.59;;;17.01;71.96
19624;BME280;9959;49.798;9.928;2023-05-08T10:54:46;100179.53;;;17.07;70.73
19624;BME280;9959;49.798;9.928;2023-05-08T10:57:14;100167.28;;;16.70;72.20
19624;BME280;9959;49.798;9.928;2023-05-08T10:59:45;100176.28;;;16.47;73.39
19624;BME280;9959;49.798;9.928;2023-05-08T11:02:13;100174.16;;;16.61;74.51
19624;BME280;9959;49.798;9.928;2023-05-08T11:04:41;100174.03;;;16.79;73.54
19624;BME280;9959;49.798;9.928;2023-05-08T11:07:09;100170.34;;;16.85;72.77
19624;BME280;9959;49.798;9.928;2023-05-08T11:12:15;100172.16;;;16.33;74.56
19624;BME280;9959;49.798;9.928;2023-05-08T11:14:55;100178.34;;;17.03;74.36
19624;BME280;9959;49.798;9.928;2023-05-08T11:17:24;100175.22;;;16.13;75.56
19624;BME280;9959;49.798;9.928;2023-05-08T11:19:59;100179.22;;;15.99;76.71
19624;BME280;9959;49.798;9.928;2023-05-08T11:22:28;100182.69;;;16.29;76.57
19624;BME280;9959;49.798;9.928;2023-05-08T11:24:59;100183.28;;;16.66;79.62
19624;BME280;9959;49.798;9.928;2023-05-08T11:30:18;100181.72;;;16.12;78.05
19624;BME280;9959;49.798;9.928;2023-05-08T11:33:18;100183.25;;;16.08;79.07
19624;BME280;9959;49.798;9.928;2023-05-08T11:35:55;100181.72;;;16.12;80.23
19624;BME280;9959;49.798;9.928;2023-05-08T11:43:42;100176.97;;;16.42;82.01
19624;BME280;9959;49.798;9.928;2023-05-08T11:46:14;100186.19;;;15.95;79.82
19624;BME280;9959;49.798;9.928;2023-05-08T11:48:42;100189.22;;;15.86;82.20
19624;BME280;9959;49.798;9.928;2023-05-08T11:51:09;100186.34;;;16.35;83.76
19624;BME280;9959;49.798;9.928;2023-05-08T11:53:36;100189.06;;;16.46;83.56
19624;BME280;9959;49.798;9.928;2023-05-08T11:56:04;100191.78;;;16.23;80.41
19624;BME280;9959;49.798;9.928;2023-05-08T11:58:31;100194.94;;;16.20;83.84
19624;BME280;9959;49.798;9.928;2023-05-08T12:00:58;100188.00;;;16.47;84.87
19624;BME280;9959;49.798;9.928;2023-05-08T12:03:25;100192.63;;;15.70;82.85
19624;BME280;9959;49.798;9.928;2023-05-08T12:05:55;100194.56;;;15.81;83.66
19624;BME280;9959;49.798;9.928;2023-05-08T12:08:23;100198.19;;;16.40;85.54
19624;BME280;9959;49.798;9.928;2023-05-08T12:10:51;100185.16;;;16.77;85.74
19624;BME280;9959;49.798;9.928;2023-05-08T12:13:20;100188.00;;;16.59;85.84
19624;BME280;9959;49.798;9.928;2023-05-08T12:15:53;100186.66;;;16.15;85.04
19624;BME280;9959;49.798;9.928;2023-05-08T12:18:21;100187.16;;;16.12;83.85
19624;BME280;9959;49.798;9.928;2023-05-08T12:20:53;100186.94;;;16.25;86.02
19624;BME280;9959;49.798;9.928;2023-05-08T12:23:20;100188.34;;;15.63;85.47
19624;BME280;9959;49.798;9.928;2023-05-08T12:25:50;100195.03;;;15.78;87.73
19624;BME280;9959;49.798;9.928;2023-05-08T12:28:21;100183.00;;;15.98;88.20
19624;BME280;9959;49.798;9.928;2023-05-08T12:30:48;100187.97;;;16.01;87.35
19624;BME280;9959;49.798;9.928;2023-05-08T12:33:16;100187.41;;;16.22;85.26
19624;BME280;9959;49.798;9.928;2023-05-08T12:35:44;100178.78;;;16.37;89.17
19624;BME280;9959;49.798;9.928;2023-05-08T12:38:11;100182.81;;;16.34;86.65
19624;BME280;9959;49.798;9.928;2023-05-08T12:40:43;100179.25;;;16.57;88.40
19624;BME280;9959;49.798;9.928;2023-05-08T12:43:10;100178.53;;;16.73;86.23
19624;BME280;9959;49.798;9.928;2023-05-08T12:45:40;100169.66;;;16.78;86.06
19624;BME280;9959;49.798;9.928;2023-05-08T12:48:09;100173.94;;;17.14;82.90
19624;BME280;9959;49.798;9.928;2023-05-08T12:50:44;100171.09;;;17.20;82.15
19624;BME280;9959;49.798;9.928;2023-05-08T12:53:18;100173.94;;;17.14;83.16
19624;BME280;9959;49.798;9.928;2023-05-08T12:55:56;100166.22;;;16.71;82.06
19624;BME280;9959;49.798;9.928;2023-05-08T12:58:32;100168.69;;;17.98;80.91
19624;BME280;9959;49.798;9.928;2023-05-08T13:01:08;100164.06;;;18.15;79.06
19624;BME280;9959;49.798;9.928;2023-05-08T13:03:38;100152.63;;;18.35;80.95
19624;BME280;9959;49.798;9.928;2023-05-08T13:06:06;100158.28;;;17.95;76.94
19624;BME280;9959;49.798;9.928;2023-05-08T13:08:37;100155.81;;;17.76;75.78
19624;BME280;9959;49.798;9.928;2023-05-08T13:11:05;100147.81;;;18.03;76.91
19624;BME280;9959;49.798;9.928;2023-05-08T13:13:35;100147.13;;;18.30;74.92
19624;BME280;9959;49.798;9.928;2023-05-08T13:16:04;100153.31;;;18.25;71.86
19624;BME280;9959;49.798;9.928;2023-05-08T13:18:31;100143.09;;;17.99;74.73
19624;BME280;9959;49.798;9.928;2023-05-08T13:20:58;100146.56;;;18.88;72.69
19624;BME280;9959;49.798;9.928;2023-05-08T13:23:27;100139.69;;;18.64;73.11
19624;BME280;9959;49.798;9.928;2023-05-08T13:25:54;100139.22;;;18.50;73.26
19624;BME280;9959;49.798;9.928;2023-05-08T13:28:21;100137.56;;;19.09;70.69
19624;BME280;9959;49.798;9.928;2023-05-08T13:30:48;100135.88;;;20.26;70.24
19624;BME280;9959;49.798;9.928;2023-05-08T13:33:15;100132.50;;;19.50;68.93
19624;BME280;9959;49.798;9.928;2023-05-08T13:35:42;100137.22;;;20.18;67.34
19624;BME280;9959;49.798;9.928;2023-05-08T13:38:08;100137.03;;;19.12;68.56
19624;BME280;9959;49.798;9.928;2023-05-08T13:40:35;100133.38;;;20.56;65.53